Hauptseite
METAR-TAF:

METAR-TAF

Flughäfen :

Bristol Airport

Bristol, England

Breite: 51-23N, Länge: 002-43W, Höhe: 189 m

Beobachtung

Neuester Wetterbericht von vor 11 Minuten, um 11:20 UTC
Wind 3 kt aus unterschiedlichen Richtungen
Temperatur 21°C
Luftfeuchtigkeit 56%
Luftdruck 1019 hPa
Sichtweite 10 km oder mehr
Aufgelockert bewölkt in der Höhe von 3600 ft

METAR: EGGD 191120Z AUTO VRB03KT 9999 SCT036 21/12 Q1019

Zeit: 12:31 (11:31 UTC)

Prognose

Neuester Wetterbericht von vor 6 Stunden und 34 Minuten, um 04:57 UTC
Gültige Prognose vom 19 um 06 UTC bis 20 um 06 UTC
Wind 7 kt aus West
Sichtweite 10 km oder mehr
Aufgelockert bewölkt in der Höhe von 4000 ft

TAF: EGGD 190457Z 1906/2006 26007KT 9999 SCT040

Wetterbeobachtungen und Prognosen von mehr als 4000 Flughäfen (METAR und TAF Bericht).

Die verfügbaren Stationen werden durch gelbe und rote Markierungen auf der Karte dargestellt.

Führen Sie die Maus auf sie, um den Namen der Station zu sehen.

Darauf klicken, um die Beobachtung von Wetterbeobachtungen und Prognosen zu sehen.

Um die Karte zu ändern : klicken Sie auf den grünen Tasten mit einem schwarzen Kreuz Zum Vergrößern, auf den grünen Button mit einem Gedankenstrich zu verkleinern, oder auf die grünen Pfeile für benachbarte Karten.


METAR-TAF: